createdAt,value
2023-03-17T00:00:12.295Z,4.50
2023-03-17T00:02:42.052Z,4.47
2023-03-17T00:05:17.308Z,4.32
2023-03-17T00:07:45.427Z,4.23
2023-03-17T00:10:17.766Z,4.65
2023-03-17T00:12:45.312Z,4.30
2023-03-17T00:15:13.814Z,3.75
2023-03-17T00:17:43.399Z,4.28
2023-03-17T00:20:22.041Z,3.92
2023-03-17T00:22:49.135Z,3.92
2023-03-17T00:25:19.203Z,3.80
2023-03-17T00:27:46.361Z,3.70
2023-03-17T00:30:13.626Z,3.58
2023-03-17T00:32:40.834Z,3.95
2023-03-17T00:35:15.967Z,3.58
2023-03-17T00:37:43.819Z,3.70
2023-03-17T00:40:16.206Z,4.07
2023-03-17T00:42:43.470Z,3.60
2023-03-17T00:45:11.392Z,3.27
2023-03-17T00:47:38.536Z,3.50
2023-03-17T00:50:06.591Z,3.35
2023-03-17T00:52:34.100Z,3.17
2023-03-17T00:55:02.117Z,3.20
2023-03-17T00:57:29.274Z,2.83
2023-03-17T00:59:56.805Z,3.22
2023-03-17T01:02:24.341Z,3.00
2023-03-17T01:04:59.932Z,2.90
2023-03-17T01:07:32.583Z,3.10
2023-03-17T01:09:59.703Z,2.90
2023-03-17T01:12:27.602Z,3.10
2023-03-17T01:14:54.735Z,2.85
2023-03-17T01:17:22.034Z,3.00
2023-03-17T01:19:49.148Z,2.90
2023-03-17T01:22:16.270Z,2.47
2023-03-17T01:24:43.407Z,2.70
2023-03-17T01:27:11.442Z,2.75
2023-03-17T01:29:40.232Z,2.60
2023-03-17T01:32:07.443Z,2.60
2023-03-17T01:34:35.123Z,2.73
2023-03-17T01:37:01.770Z,2.42
2023-03-17T01:39:28.901Z,2.45
2023-03-17T01:42:01.193Z,2.72
2023-03-17T01:44:28.275Z,2.33
2023-03-17T01:46:55.563Z,2.33
2023-03-17T01:49:26.342Z,2.60
2023-03-17T01:52:10.304Z,2.40
2023-03-17T01:54:41.982Z,2.10
2023-03-17T01:57:13.642Z,2.50
2023-03-17T01:59:44.053Z,2.30
2023-03-17T02:02:13.338Z,2.28
2023-03-17T02:04:40.545Z,2.03
2023-03-17T02:07:08.057Z,2.35
2023-03-17T02:09:35.822Z,2.15
2023-03-17T02:12:05.191Z,2.00
2023-03-17T02:14:32.324Z,2.30
2023-03-17T02:16:59.549Z,1.90
2023-03-17T02:19:26.708Z,2.00
2023-03-17T02:21:55.170Z,2.00
2023-03-17T02:24:22.592Z,2.20
2023-03-17T02:26:50.134Z,2.40
2023-03-17T02:29:19.657Z,1.80
2023-03-17T02:31:46.738Z,2.20
2023-03-17T02:34:14.346Z,2.20
2023-03-17T02:36:41.472Z,2.08
2023-03-17T02:39:08.595Z,2.15
2023-03-17T02:41:36.288Z,1.90
2023-03-17T02:44:03.376Z,2.50
2023-03-17T02:46:30.401Z,2.20
2023-03-17T02:48:57.714Z,2.15
2023-03-17T02:51:24.875Z,2.33
2023-03-17T02:53:51.929Z,2.00
2023-03-17T02:56:19.000Z,2.00
2023-03-17T02:58:46.393Z,1.92
2023-03-17T03:01:13.555Z,2.17
2023-03-17T03:03:40.706Z,2.10
2023-03-17T03:06:07.876Z,2.35
2023-03-17T03:08:34.971Z,2.10
2023-03-17T03:11:02.570Z,2.20
2023-03-17T03:13:29.814Z,2.00
2023-03-17T03:15:57.350Z,2.17
2023-03-17T03:18:24.450Z,2.00
2023-03-17T03:20:51.505Z,2.13
2023-03-17T03:23:18.675Z,2.30
2023-03-17T03:25:46.673Z,2.30
2023-03-17T03:28:13.968Z,2.00
2023-03-17T03:30:41.681Z,2.28
2023-03-17T03:33:08.796Z,2.40
2023-03-17T03:35:36.210Z,2.37
2023-03-17T03:38:03.467Z,2.10
2023-03-17T03:40:31.147Z,2.17
2023-03-17T03:42:58.560Z,2.40
2023-03-17T03:45:26.025Z,2.10
2023-03-17T03:47:53.130Z,2.50
2023-03-17T03:50:20.800Z,2.00
2023-03-17T03:52:47.921Z,2.40
2023-03-17T03:55:15.251Z,2.20
2023-03-17T03:57:42.981Z,2.20
2023-03-17T04:00:10.943Z,2.08
2023-03-17T04:02:38.085Z,2.30
2023-03-17T04:05:07.160Z,2.20
2023-03-17T04:07:34.231Z,2.10
2023-03-17T04:10:01.475Z,2.20
2023-03-17T04:12:28.651Z,2.13
2023-03-17T04:14:55.893Z,2.20
2023-03-17T04:17:23.257Z,2.47
2023-03-17T04:19:50.550Z,2.38
2023-03-17T04:22:17.794Z,2.20
2023-03-17T04:24:44.902Z,2.17
2023-03-17T04:27:12.231Z,2.35
2023-03-17T04:29:39.273Z,2.23
2023-03-17T04:32:06.557Z,2.47
2023-03-17T04:34:33.800Z,2.22
2023-03-17T04:37:00.796Z,2.45
2023-03-17T04:39:27.964Z,2.35
2023-03-17T04:41:55.240Z,2.40
2023-03-17T04:44:22.375Z,2.70
2023-03-17T04:46:49.477Z,2.30
2023-03-17T04:49:16.748Z,2.50
2023-03-17T04:51:43.914Z,2.42
2023-03-17T04:54:11.119Z,2.50
2023-03-17T04:56:38.224Z,2.50
2023-03-17T04:59:05.651Z,2.60
2023-03-17T05:01:32.392Z,2.70
2023-03-17T05:03:59.111Z,2.50
2023-03-17T05:06:26.387Z,2.78
2023-03-17T05:08:53.457Z,2.50
2023-03-17T05:11:20.661Z,2.57
2023-03-17T05:13:47.737Z,2.25
2023-03-17T05:16:14.976Z,2.40
2023-03-17T05:18:43.709Z,2.40
2023-03-17T05:21:11.229Z,2.70
2023-03-17T05:23:38.363Z,2.40
2023-03-17T05:26:06.423Z,2.58
2023-03-17T05:28:33.952Z,2.45
2023-03-17T05:31:01.098Z,2.40
2023-03-17T05:33:28.872Z,2.78
2023-03-17T05:35:56.169Z,2.67
2023-03-17T05:38:23.293Z,2.70
2023-03-17T05:40:51.834Z,2.60
2023-03-17T05:43:19.064Z,2.85
2023-03-17T05:45:47.223Z,2.60
2023-03-17T05:48:14.405Z,2.23
2023-03-17T05:50:41.783Z,2.73
2023-03-17T05:53:09.124Z,2.67
2023-03-17T05:55:36.235Z,2.70
2023-03-17T05:58:05.040Z,2.80
2023-03-17T06:00:32.529Z,2.90
2023-03-17T06:02:59.802Z,2.70
2023-03-17T06:05:27.202Z,3.00
2023-03-17T06:07:56.484Z,2.83
2023-03-17T06:10:24.777Z,2.90
2023-03-17T06:12:52.034Z,2.85
2023-03-17T06:15:19.384Z,2.60
2023-03-17T06:17:46.451Z,2.50
2023-03-17T06:20:14.234Z,2.70
2023-03-17T06:22:55.292Z,2.63
2023-03-17T06:25:29.406Z,2.50
2023-03-17T06:27:57.619Z,2.85
2023-03-17T06:30:24.760Z,2.83
2023-03-17T06:32:51.868Z,2.97
2023-03-17T06:35:19.089Z,2.63
2023-03-17T06:37:46.687Z,2.80
2023-03-17T06:40:14.102Z,2.67
2023-03-17T06:42:41.290Z,2.90
2023-03-17T06:45:09.362Z,2.78
2023-03-17T06:47:37.237Z,2.72
2023-03-17T06:50:04.929Z,2.78
2023-03-17T06:52:32.177Z,2.90
2023-03-17T06:54:59.286Z,2.90
2023-03-17T06:57:26.939Z,3.38
2023-03-17T06:59:54.092Z,2.88
2023-03-17T07:02:21.195Z,3.10
2023-03-17T07:04:48.352Z,3.05
2023-03-17T07:07:16.229Z,3.50
2023-03-17T07:09:43.366Z,3.53
2023-03-17T07:12:10.513Z,3.30
2023-03-17T07:14:37.734Z,3.80
2023-03-17T07:17:06.117Z,3.30
2023-03-17T07:19:34.974Z,2.90
2023-03-17T07:22:02.156Z,3.10
2023-03-17T07:24:28.913Z,3.60
2023-03-17T07:26:56.024Z,3.42
2023-03-17T07:29:25.326Z,2.90
2023-03-17T07:31:52.453Z,2.70
2023-03-17T07:34:19.910Z,2.50
2023-03-17T07:36:47.044Z,2.60
2023-03-17T07:39:14.158Z,2.65
2023-03-17T07:41:41.403Z,2.75
2023-03-17T07:44:09.778Z,2.47
2023-03-17T07:46:36.901Z,2.33
2023-03-17T07:49:04.068Z,2.60
2023-03-17T07:51:31.155Z,2.58
2023-03-17T07:54:03.478Z,2.40
2023-03-17T07:56:31.363Z,2.08
2023-03-17T07:58:58.991Z,2.30
2023-03-17T08:01:26.868Z,2.20
2023-03-17T08:03:54.299Z,2.30
2023-03-17T08:06:21.641Z,2.33
2023-03-17T08:08:48.911Z,2.50
2023-03-17T08:11:17.778Z,2.33
2023-03-17T08:13:45.290Z,2.00
2023-03-17T08:16:12.717Z,2.33
2023-03-17T08:18:40.212Z,2.58
2023-03-17T08:21:07.511Z,2.17
2023-03-17T08:23:34.258Z,2.40
2023-03-17T08:26:03.361Z,2.00
2023-03-17T08:28:31.323Z,2.20
2023-03-17T08:31:15.763Z,2.30
2023-03-17T08:33:43.210Z,2.25
2023-03-17T08:36:11.283Z,2.17
2023-03-17T08:38:39.227Z,2.40
2023-03-17T08:41:08.036Z,2.63
2023-03-17T08:43:36.673Z,2.55
2023-03-17T08:46:07.470Z,2.10
2023-03-17T08:48:35.391Z,2.17
2023-03-17T08:51:04.781Z,1.73
2023-03-17T08:53:34.221Z,2.08
2023-03-17T08:56:01.885Z,2.00
2023-03-17T08:58:29.098Z,1.70
2023-03-17T09:01:00.473Z,2.03
2023-03-17T09:03:27.785Z,1.77
2023-03-17T09:05:54.723Z,1.70
2023-03-17T09:08:22.632Z,1.90
2023-03-17T09:10:49.566Z,1.70
2023-03-17T09:13:16.296Z,1.88
2023-03-17T09:15:43.070Z,1.88
2023-03-17T09:18:10.422Z,2.30
2023-03-17T09:20:37.212Z,1.63
2023-03-17T09:23:08.504Z,1.70
2023-03-17T09:25:37.229Z,1.80
2023-03-17T09:28:04.739Z,1.97
2023-03-17T09:30:32.841Z,1.60
2023-03-17T09:33:00.710Z,1.90
2023-03-17T09:35:28.215Z,1.55
2023-03-17T09:37:56.635Z,1.63
2023-03-17T09:40:32.526Z,1.70
2023-03-17T09:43:08.079Z,1.50
2023-03-17T09:45:38.794Z,1.63
2023-03-17T09:48:14.081Z,1.80
2023-03-17T09:50:50.851Z,1.65
2023-03-17T09:53:22.834Z,1.40
2023-03-17T09:55:55.603Z,1.67
2023-03-17T09:58:32.554Z,1.70
2023-03-17T10:01:01.116Z,2.00
2023-03-17T10:03:27.852Z,1.60
2023-03-17T10:06:15.161Z,1.85
2023-03-17T10:08:50.738Z,1.67
2023-03-17T10:11:38.385Z,1.38
2023-03-17T10:14:14.383Z,1.80
2023-03-17T10:16:57.177Z,1.75
2023-03-17T10:19:31.977Z,1.58
2023-03-17T10:22:05.189Z,1.30
2023-03-17T10:24:34.036Z,1.40
2023-03-17T10:27:06.351Z,1.70
2023-03-17T10:29:33.226Z,1.60
2023-03-17T10:31:59.954Z,1.38
2023-03-17T10:34:33.609Z,1.58
2023-03-17T10:37:06.995Z,1.50
2023-03-17T10:39:46.925Z,1.63
2023-03-17T10:42:21.742Z,1.40
2023-03-17T10:44:56.376Z,1.30
2023-03-17T10:47:30.207Z,1.42
2023-03-17T10:49:59.086Z,1.40
2023-03-17T10:52:30.172Z,1.50
2023-03-17T10:55:04.263Z,1.50
2023-03-17T10:57:31.249Z,1.50
2023-03-17T11:00:01.757Z,1.70
2023-03-17T11:02:35.619Z,1.45
2023-03-17T11:05:07.504Z,1.50
2023-03-17T11:07:36.404Z,1.30
2023-03-17T11:10:05.694Z,1.50
2023-03-17T11:12:40.024Z,1.80
2023-03-17T11:15:11.690Z,1.10
2023-03-17T11:17:41.383Z,1.30
2023-03-17T11:20:27.533Z,1.27
2023-03-17T11:23:00.182Z,1.35
2023-03-17T11:25:28.270Z,1.33
2023-03-17T11:28:16.760Z,1.30
2023-03-17T11:30:52.618Z,1.48
2023-03-17T11:33:21.783Z,1.35
2023-03-17T11:36:11.933Z,1.50
2023-03-17T11:38:51.469Z,1.30
2023-03-17T11:41:35.652Z,1.45
2023-03-17T11:44:18.332Z,1.63
2023-03-17T11:47:04.889Z,1.73
2023-03-17T11:49:40.567Z,1.58
2023-03-17T11:52:29.949Z,1.33
2023-03-17T11:55:19.688Z,1.42
2023-03-17T11:58:10.584Z,1.40
2023-03-17T12:00:45.426Z,1.50
2023-03-17T12:03:18.192Z,1.35
2023-03-17T12:05:51.941Z,1.35
2023-03-17T12:08:26.158Z,1.50
2023-03-17T12:10:56.444Z,1.50
2023-03-17T12:13:32.765Z,1.40
2023-03-17T12:16:08.561Z,1.35
2023-03-17T12:18:43.086Z,1.38
2023-03-17T12:21:27.203Z,1.30
2023-03-17T12:24:03.151Z,1.20
2023-03-17T12:26:52.980Z,1.25
2023-03-17T12:29:35.687Z,1.27
2023-03-17T12:32:12.353Z,1.20
2023-03-17T12:35:02.196Z,1.00
2023-03-17T12:37:30.146Z,0.90
2023-03-17T12:40:10.550Z,0.98
2023-03-17T12:42:45.582Z,1.10
2023-03-17T12:45:29.225Z,1.17
2023-03-17T12:48:03.224Z,1.10
2023-03-17T12:50:49.926Z,1.10
2023-03-17T12:53:36.661Z,1.10
2023-03-17T12:56:11.181Z,1.20
2023-03-17T12:58:40.394Z,1.10
2023-03-17T13:01:08.919Z,1.10
2023-03-17T13:03:45.415Z,1.13
2023-03-17T13:06:19.381Z,1.15
2023-03-17T13:08:46.709Z,1.05
2023-03-17T13:11:45.536Z,1.17
2023-03-17T13:14:51.576Z,1.10
2023-03-17T13:17:19.638Z,1.20
2023-03-17T13:20:07.209Z,1.00
2023-03-17T13:22:38.188Z,1.13
2023-03-17T13:25:13.837Z,1.10
2023-03-17T13:27:43.809Z,1.00
2023-03-17T13:30:42.042Z,1.10
2023-03-17T13:33:09.892Z,1.10
2023-03-17T13:35:57.132Z,1.13
2023-03-17T13:39:18.750Z,1.10
2023-03-17T13:42:17.938Z,1.20
2023-03-17T13:45:16.836Z,1.00
2023-03-17T13:47:45.915Z,1.00
2023-03-17T13:50:33.360Z,1.02
2023-03-17T13:53:04.771Z,1.00
2023-03-17T13:55:36.798Z,0.85
2023-03-17T13:58:11.661Z,1.00
2023-03-17T14:00:41.392Z,1.00
2023-03-17T14:03:12.330Z,0.90
2023-03-17T14:05:40.687Z,0.90
2023-03-17T14:08:17.035Z,1.00
2023-03-17T14:10:52.498Z,1.02
2023-03-17T14:13:27.061Z,1.35
2023-03-17T14:16:03.880Z,1.10
2023-03-17T14:18:34.849Z,1.08
2023-03-17T14:21:09.450Z,0.90
2023-03-17T14:23:37.869Z,1.30
2023-03-17T14:26:06.251Z,1.20
2023-03-17T14:28:34.988Z,0.85
2023-03-17T14:31:04.012Z,0.93
2023-03-17T14:33:34.480Z,1.07
2023-03-17T14:36:02.061Z,1.30
2023-03-17T14:38:32.773Z,1.50
2023-03-17T14:41:01.125Z,1.15
2023-03-17T14:43:27.846Z,1.25
2023-03-17T14:46:16.431Z,1.02
2023-03-17T14:48:46.398Z,1.90
2023-03-17T14:51:36.193Z,1.00
2023-03-17T14:54:22.443Z,1.10
2023-03-17T14:56:53.215Z,0.85
2023-03-17T14:59:25.899Z,1.00
2023-03-17T15:01:55.536Z,1.00
2023-03-17T15:04:25.593Z,1.00
2023-03-17T15:06:52.270Z,1.02
2023-03-17T15:09:36.407Z,1.13
2023-03-17T15:12:07.515Z,0.90
2023-03-17T15:14:38.728Z,1.10
2023-03-17T15:17:14.341Z,1.00
2023-03-17T15:19:44.212Z,1.10
2023-03-17T15:22:23.807Z,1.30
2023-03-17T15:25:10.908Z,1.10
2023-03-17T15:27:37.642Z,1.10
2023-03-17T15:30:04.784Z,0.80
2023-03-17T15:32:32.218Z,1.00
2023-03-17T15:34:58.952Z,0.90
2023-03-17T15:37:28.113Z,1.10
2023-03-17T15:39:55.840Z,0.93
2023-03-17T15:42:26.610Z,1.10
2023-03-17T15:44:54.892Z,0.90
2023-03-17T15:47:25.113Z,1.10
2023-03-17T15:49:54.610Z,1.30
2023-03-17T15:52:25.124Z,1.00
2023-03-17T15:54:58.299Z,1.00
2023-03-17T15:57:26.206Z,0.90
2023-03-17T15:59:53.254Z,1.08
2023-03-17T16:02:37.160Z,1.05
2023-03-17T16:05:19.915Z,1.00
2023-03-17T16:07:47.326Z,1.00
2023-03-17T16:10:21.041Z,1.10
2023-03-17T16:12:49.001Z,1.00
2023-03-17T16:15:23.155Z,1.30
2023-03-17T16:17:53.487Z,1.20
2023-03-17T16:20:30.361Z,1.60
2023-03-17T16:22:58.620Z,1.55
2023-03-17T16:25:31.021Z,1.30
2023-03-17T16:27:58.920Z,1.00
2023-03-17T16:30:27.156Z,1.08
2023-03-17T16:32:54.922Z,1.10
2023-03-17T16:35:23.294Z,1.02
2023-03-17T16:37:52.345Z,1.10
2023-03-17T16:40:19.415Z,1.30
2023-03-17T16:42:47.144Z,1.00
2023-03-17T16:45:16.464Z,1.10
2023-03-17T16:47:43.565Z,1.17
2023-03-17T16:50:19.521Z,1.02
2023-03-17T16:52:46.737Z,1.00
2023-03-17T16:55:14.509Z,1.63
2023-03-17T16:57:42.916Z,1.83
2023-03-17T17:00:15.404Z,1.95
2023-03-17T17:02:42.595Z,1.90
2023-03-17T17:05:18.242Z,1.90
2023-03-17T17:07:45.700Z,1.63
2023-03-17T17:10:13.888Z,1.30
2023-03-17T17:12:41.027Z,1.30
2023-03-17T17:15:08.580Z,1.65
2023-03-17T17:17:36.448Z,1.92
2023-03-17T17:20:04.601Z,3.57
2023-03-17T17:22:31.672Z,3.75
2023-03-17T17:24:58.743Z,3.58
2023-03-17T17:27:25.997Z,2.80
2023-03-17T17:29:53.056Z,2.47
2023-03-17T17:32:20.203Z,2.63
2023-03-17T17:34:47.294Z,3.40
2023-03-17T17:37:14.414Z,3.00
2023-03-17T17:39:42.319Z,3.80
2023-03-17T17:42:10.846Z,2.90
2023-03-17T17:44:38.740Z,2.70
2023-03-17T17:47:06.014Z,2.10
2023-03-17T17:49:33.266Z,1.67
2023-03-17T17:52:00.540Z,2.00
2023-03-17T17:54:27.685Z,2.20
2023-03-17T17:56:54.813Z,2.00
2023-03-17T17:59:22.312Z,2.30
2023-03-17T18:01:49.355Z,2.22
2023-03-17T18:04:16.478Z,2.15
2023-03-17T18:06:43.577Z,2.15
2023-03-17T18:09:10.663Z,2.10
2023-03-17T18:11:40.265Z,3.38
2023-03-17T18:14:07.879Z,4.03
2023-03-17T18:16:36.145Z,4.22
2023-03-17T18:19:04.097Z,4.05
2023-03-17T18:21:31.485Z,4.60
2023-03-17T18:23:58.557Z,2.80
2023-03-17T18:26:25.916Z,2.78
2023-03-17T18:28:53.086Z,2.40
2023-03-17T18:31:21.559Z,2.38
2023-03-17T18:33:49.994Z,2.80
2023-03-17T18:36:17.250Z,1.93
2023-03-17T18:38:44.374Z,1.80
2023-03-17T18:41:12.375Z,1.63
2023-03-17T18:43:41.170Z,1.98
2023-03-17T18:46:08.376Z,1.90
2023-03-17T18:48:36.291Z,1.83
2023-03-17T18:51:03.795Z,2.30
2023-03-17T18:53:33.092Z,2.10
2023-03-17T18:56:00.611Z,2.08
2023-03-17T18:58:27.886Z,2.10
2023-03-17T19:00:59.434Z,1.97
2023-03-17T19:03:27.403Z,2.40
2023-03-17T19:05:55.001Z,3.27
2023-03-17T19:08:22.642Z,3.65
2023-03-17T19:10:49.777Z,2.90
2023-03-17T19:13:17.485Z,3.20
2023-03-17T19:15:44.521Z,2.87
2023-03-17T19:18:11.567Z,3.10
2023-03-17T19:20:38.668Z,3.85
2023-03-17T19:23:06.860Z,4.10
2023-03-17T19:25:34.531Z,3.80
2023-03-17T19:28:03.154Z,3.03
2023-03-17T19:30:30.656Z,2.90
2023-03-17T19:32:58.005Z,2.90
2023-03-17T19:35:25.244Z,2.70
2023-03-17T19:37:52.287Z,3.17
2023-03-17T19:40:19.475Z,3.35
2023-03-17T19:42:46.633Z,3.20
2023-03-17T19:45:13.757Z,3.65
2023-03-17T19:47:41.048Z,3.50
2023-03-17T19:50:08.441Z,2.80
2023-03-17T19:52:35.576Z,2.67
2023-03-17T19:55:04.085Z,2.90
2023-03-17T19:57:32.157Z,2.83
2023-03-17T19:59:59.274Z,2.58
2023-03-17T20:02:27.047Z,2.60
2023-03-17T20:04:54.586Z,2.65
2023-03-17T20:07:21.956Z,2.90
2023-03-17T20:09:52.443Z,2.92
2023-03-17T20:12:19.616Z,2.72
2023-03-17T20:14:46.832Z,3.40
2023-03-17T20:17:15.292Z,2.90
2023-03-17T20:19:42.382Z,3.42
2023-03-17T20:22:09.508Z,2.90
2023-03-17T20:24:37.051Z,3.20
2023-03-17T20:27:05.149Z,2.90
2023-03-17T20:29:32.504Z,2.65
2023-03-17T20:31:59.693Z,3.20
2023-03-17T20:34:27.036Z,3.00
2023-03-17T20:36:54.549Z,2.92
2023-03-17T20:39:21.685Z,2.70
2023-03-17T20:41:49.844Z,2.88
2023-03-17T20:44:17.827Z,2.83
2023-03-17T20:46:45.764Z,2.60
2023-03-17T20:49:14.061Z,2.58
2023-03-17T20:51:41.480Z,2.70
2023-03-17T20:54:08.789Z,2.67
2023-03-17T20:56:37.356Z,2.30
2023-03-17T20:59:05.382Z,3.15
2023-03-17T21:01:33.431Z,3.47
2023-03-17T21:04:00.703Z,2.80
2023-03-17T21:06:28.570Z,2.72
2023-03-17T21:08:55.871Z,2.80
2023-03-17T21:11:23.207Z,2.70
2023-03-17T21:13:50.798Z,2.65
2023-03-17T21:16:23.848Z,2.90
2023-03-17T21:18:51.533Z,2.50
2023-03-17T21:21:19.264Z,2.70
2023-03-17T21:23:46.140Z,3.00
2023-03-17T21:26:14.301Z,2.67
2023-03-17T21:28:42.453Z,2.85
2023-03-17T21:31:10.381Z,2.70
2023-03-17T21:33:37.850Z,3.00
2023-03-17T21:36:05.804Z,3.28
2023-03-17T21:38:33.122Z,3.47
2023-03-17T21:41:18.581Z,3.90
2023-03-17T21:43:46.631Z,3.20
2023-03-17T21:46:14.479Z,8.82
2023-03-17T21:48:41.717Z,5.10
2023-03-17T21:51:08.943Z,5.50
2023-03-17T21:53:36.057Z,5.47
2023-03-17T21:56:04.101Z,4.50
2023-03-17T21:58:31.118Z,4.10
2023-03-17T22:01:00.597Z,4.35
2023-03-17T22:03:27.922Z,4.07
2023-03-17T22:05:55.148Z,5.03
2023-03-17T22:08:22.545Z,5.80
2023-03-17T22:10:49.603Z,5.18
2023-03-17T22:13:16.908Z,4.72
2023-03-17T22:15:44.725Z,5.97
2023-03-17T22:18:11.829Z,5.68
2023-03-17T22:20:39.014Z,6.53
2023-03-17T22:23:06.298Z,4.88
2023-03-17T22:25:33.416Z,5.68
2023-03-17T22:28:00.523Z,6.80
2023-03-17T22:30:27.711Z,6.50
2023-03-17T22:32:54.869Z,7.18
2023-03-17T22:35:23.467Z,8.77
2023-03-17T22:37:50.733Z,8.43
2023-03-17T22:40:19.090Z,6.00
2023-03-17T22:42:46.674Z,5.95
2023-03-17T22:45:13.782Z,6.20
2023-03-17T22:47:41.004Z,6.03
2023-03-17T22:50:08.275Z,5.80
2023-03-17T22:52:35.792Z,5.50
2023-03-17T22:55:04.005Z,5.88
2023-03-17T22:57:31.429Z,6.25
2023-03-17T22:59:59.147Z,5.90
2023-03-17T23:02:26.748Z,5.55
2023-03-17T23:04:54.158Z,6.00
2023-03-17T23:07:21.260Z,5.82
2023-03-17T23:09:48.425Z,5.90
2023-03-17T23:12:16.155Z,6.13
2023-03-17T23:14:43.662Z,5.95
2023-03-17T23:17:11.007Z,6.57
2023-03-17T23:19:38.133Z,6.50
2023-03-17T23:22:05.235Z,6.30
2023-03-17T23:24:32.423Z,6.85
2023-03-17T23:26:59.590Z,7.15
2023-03-17T23:29:27.685Z,6.00
2023-03-17T23:31:54.890Z,6.47
2023-03-17T23:34:22.431Z,6.32
2023-03-17T23:36:49.520Z,6.28
2023-03-17T23:39:16.730Z,6.57
2023-03-17T23:41:44.918Z,6.07
2023-03-17T23:44:11.864Z,6.50
2023-03-17T23:46:39.094Z,6.53
2023-03-17T23:49:07.260Z,6.35
2023-03-17T23:51:35.497Z,6.63
2023-03-17T23:54:02.624Z,6.25
2023-03-17T23:56:29.658Z,5.68
2023-03-17T23:58:57.043Z,6.00
